sensor_id;sensor_type;location;lat;lon;timestamp;P1;durP1;ratioP1;P2;durP2;ratioP2
57191;SDS011;43052;52.588;13.396;2022-11-30T00:00:02;60.75;;;30.73;;
57191;SDS011;43052;52.588;13.396;2022-11-30T00:02:29;67.90;;;35.60;;
57191;SDS011;43052;52.588;13.396;2022-11-30T00:04:54;61.53;;;31.08;;
57191;SDS011;43052;52.588;13.396;2022-11-30T00:07:19;64.18;;;35.17;;
57191;SDS011;43052;52.588;13.396;2022-11-30T00:09:47;66.82;;;34.38;;
57191;SDS011;43052;52.588;13.396;2022-11-30T00:12:12;62.55;;;34.38;;
57191;SDS011;43052;52.588;13.396;2022-11-30T00:14:37;66.82;;;36.63;;
57191;SDS011;43052;52.588;13.396;2022-11-30T00:17:03;57.67;;;29.35;;
57191;SDS011;43052;52.588;13.396;2022-11-30T00:19:28;65.78;;;35.60;;
57191;SDS011;43052;52.588;13.396;2022-11-30T00:21:53;71.25;;;38.42;;
57191;SDS011;43052;52.588;13.396;2022-11-30T00:24:18;74.85;;;40.17;;
57191;SDS011;43052;52.588;13.396;2022-11-30T00:26:44;68.75;;;37.55;;
57191;SDS011;43052;52.588;13.396;2022-11-30T00:29:09;70.55;;;36.13;;
57191;SDS011;43052;52.588;13.396;2022-11-30T00:31:34;61.45;;;36.15;;
57191;SDS011;43052;52.588;13.396;2022-11-30T00:33:59;71.07;;;38.22;;
57191;SDS011;43052;52.588;13.396;2022-11-30T00:36:25;70.25;;;36.42;;
57191;SDS011;43052;52.588;13.396;2022-11-30T00:38:50;73.88;;;37.17;;
57191;SDS011;43052;52.588;13.396;2022-11-30T00:41:16;65.60;;;33.15;;
57191;SDS011;43052;52.588;13.396;2022-11-30T00:43:42;66.13;;;35.35;;
57191;SDS011;43052;52.588;13.396;2022-11-30T00:46:08;68.30;;;37.63;;
57191;SDS011;43052;52.588;13.396;2022-11-30T00:48:34;69.60;;;38.15;;
57191;SDS011;43052;52.588;13.396;2022-11-30T00:51:00;70.80;;;37.95;;
57191;SDS011;43052;52.588;13.396;2022-11-30T00:53:25;67.43;;;36.95;;
57191;SDS011;43052;52.588;13.396;2022-11-30T00:55:51;65.32;;;35.97;;
57191;SDS011;43052;52.588;13.396;2022-11-30T00:58:16;66.90;;;37.33;;
57191;SDS011;43052;52.588;13.396;2022-11-30T01:00:42;69.60;;;37.83;;
57191;SDS011;43052;52.588;13.396;2022-11-30T01:03:07;71.50;;;38.22;;
57191;SDS011;43052;52.588;13.396;2022-11-30T01:05:33;64.38;;;35.97;;
57191;SDS011;43052;52.588;13.396;2022-11-30T01:07:59;71.03;;;39.47;;
57191;SDS011;43052;52.588;13.396;2022-11-30T01:10:25;70.57;;;38.92;;
57191;SDS011;43052;52.588;13.396;2022-11-30T01:12:51;73.65;;;38.53;;
57191;SDS011;43052;52.588;13.396;2022-11-30T01:15:16;70.90;;;36.05;;
57191;SDS011;43052;52.588;13.396;2022-11-30T01:17:41;73.28;;;37.97;;
57191;SDS011;43052;52.588;13.396;2022-11-30T01:20:06;69.50;;;37.80;;
57191;SDS011;43052;52.588;13.396;2022-11-30T01:22:32;67.40;;;36.13;;
57191;SDS011;43052;52.588;13.396;2022-11-30T01:24:58;68.30;;;37.40;;
57191;SDS011;43052;52.588;13.396;2022-11-30T01:27:23;71.20;;;37.10;;
57191;SDS011;43052;52.588;13.396;2022-11-30T01:29:48;71.55;;;37.80;;
57191;SDS011;43052;52.588;13.396;2022-11-30T01:32:13;69.82;;;37.28;;
57191;SDS011;43052;52.588;13.396;2022-11-30T01:34:39;65.18;;;34.15;;
57191;SDS011;43052;52.588;13.396;2022-11-30T01:37:04;66.03;;;35.47;;
57191;SDS011;43052;52.588;13.396;2022-11-30T01:39:29;68.13;;;37.10;;
57191;SDS011;43052;52.588;13.396;2022-11-30T01:41:54;69.07;;;38.08;;
57191;SDS011;43052;52.588;13.396;2022-11-30T01:47:01;70.93;;;37.10;;
57191;SDS011;43052;52.588;13.396;2022-11-30T01:49:29;70.88;;;39.33;;
57191;SDS011;43052;52.588;13.396;2022-11-30T01:51:59;66.75;;;37.63;;
57191;SDS011;43052;52.588;13.396;2022-11-30T01:54:28;61.72;;;31.90;;
57191;SDS011;43052;52.588;13.396;2022-11-30T01:57:12;66.45;;;36.38;;
57191;SDS011;43052;52.588;13.396;2022-11-30T01:59:42;69.63;;;36.45;;
57191;SDS011;43052;52.588;13.396;2022-11-30T02:02:07;68.82;;;34.40;;
57191;SDS011;43052;52.588;13.396;2022-11-30T02:04:33;67.05;;;33.63;;
57191;SDS011;43052;52.588;13.396;2022-11-30T02:07:00;71.78;;;37.92;;
57191;SDS011;43052;52.588;13.396;2022-11-30T02:09:28;67.53;;;34.70;;
57191;SDS011;43052;52.588;13.396;2022-11-30T02:11:55;76.38;;;39.70;;
57191;SDS011;43052;52.588;13.396;2022-11-30T02:17:14;75.07;;;38.95;;
57191;SDS011;43052;52.588;13.396;2022-11-30T02:19:53;76.25;;;39.28;;
57191;SDS011;43052;52.588;13.396;2022-11-30T02:22:41;73.30;;;40.50;;
57191;SDS011;43052;52.588;13.396;2022-11-30T02:28:07;76.07;;;38.78;;
57191;SDS011;43052;52.588;13.396;2022-11-30T02:31:01;78.97;;;42.17;;
57191;SDS011;43052;52.588;13.396;2022-11-30T02:33:29;76.15;;;39.85;;
57191;SDS011;43052;52.588;13.396;2022-11-30T02:35:55;75.50;;;39.90;;
57191;SDS011;43052;52.588;13.396;2022-11-30T02:38:23;69.43;;;36.72;;
57191;SDS011;43052;52.588;13.396;2022-11-30T02:40:50;72.18;;;37.25;;
57191;SDS011;43052;52.588;13.396;2022-11-30T02:43:17;76.38;;;39.33;;
57191;SDS011;43052;52.588;13.396;2022-11-30T02:45:51;76.35;;;39.17;;
57191;SDS011;43052;52.588;13.396;2022-11-30T02:48:28;79.50;;;42.63;;
57191;SDS011;43052;52.588;13.396;2022-11-30T02:51:04;74.35;;;41.10;;
57191;SDS011;43052;52.588;13.396;2022-11-30T02:53:34;74.30;;;40.45;;
57191;SDS011;43052;52.588;13.396;2022-11-30T02:56:00;76.60;;;39.97;;
57191;SDS011;43052;52.588;13.396;2022-11-30T02:58:25;71.00;;;38.55;;
57191;SDS011;43052;52.588;13.396;2022-11-30T03:00:51;79.13;;;41.85;;
57191;SDS011;43052;52.588;13.396;2022-11-30T03:03:16;74.88;;;40.00;;
57191;SDS011;43052;52.588;13.396;2022-11-30T03:05:41;76.05;;;41.90;;
57191;SDS011;43052;52.588;13.396;2022-11-30T03:08:06;73.85;;;38.38;;
57191;SDS011;43052;52.588;13.396;2022-11-30T03:10:31;73.95;;;39.55;;
57191;SDS011;43052;52.588;13.396;2022-11-30T03:12:57;72.68;;;38.13;;
57191;SDS011;43052;52.588;13.396;2022-11-30T03:15:23;71.18;;;40.35;;
57191;SDS011;43052;52.588;13.396;2022-11-30T03:17:48;67.47;;;36.17;;
57191;SDS011;43052;52.588;13.396;2022-11-30T03:20:13;73.57;;;40.13;;
57191;SDS011;43052;52.588;13.396;2022-11-30T03:22:39;74.40;;;38.75;;
57191;SDS011;43052;52.588;13.396;2022-11-30T03:25:04;72.13;;;38.40;;
57191;SDS011;43052;52.588;13.396;2022-11-30T03:27:29;73.55;;;39.50;;
57191;SDS011;43052;52.588;13.396;2022-11-30T03:29:55;75.28;;;37.30;;
57191;SDS011;43052;52.588;13.396;2022-11-30T03:32:20;72.45;;;39.33;;
57191;SDS011;43052;52.588;13.396;2022-11-30T03:34:45;73.82;;;39.00;;
57191;SDS011;43052;52.588;13.396;2022-11-30T03:37:10;74.45;;;38.95;;
57191;SDS011;43052;52.588;13.396;2022-11-30T03:39:36;74.07;;;39.80;;
57191;SDS011;43052;52.588;13.396;2022-11-30T03:42:01;71.28;;;37.80;;
57191;SDS011;43052;52.588;13.396;2022-11-30T03:44:26;74.20;;;37.58;;
57191;SDS011;43052;52.588;13.396;2022-11-30T03:46:51;71.75;;;37.97;;
57191;SDS011;43052;52.588;13.396;2022-11-30T03:49:17;71.95;;;40.00;;
57191;SDS011;43052;52.588;13.396;2022-11-30T03:51:42;69.25;;;38.28;;
57191;SDS011;43052;52.588;13.396;2022-11-30T03:54:07;70.95;;;40.15;;
57191;SDS011;43052;52.588;13.396;2022-11-30T03:56:32;74.13;;;40.72;;
57191;SDS011;43052;52.588;13.396;2022-11-30T03:58:57;76.40;;;38.53;;
57191;SDS011;43052;52.588;13.396;2022-11-30T04:01:23;69.13;;;37.92;;
57191;SDS011;43052;52.588;13.396;2022-11-30T04:03:49;73.25;;;37.60;;
57191;SDS011;43052;52.588;13.396;2022-11-30T04:06:15;76.78;;;41.22;;
57191;SDS011;43052;52.588;13.396;2022-11-30T04:08:42;77.90;;;40.17;;
57191;SDS011;43052;52.588;13.396;2022-11-30T04:11:07;73.63;;;39.67;;
57191;SDS011;43052;52.588;13.396;2022-11-30T04:13:33;69.85;;;36.67;;
57191;SDS011;43052;52.588;13.396;2022-11-30T04:16:00;64.78;;;32.20;;
57191;SDS011;43052;52.588;13.396;2022-11-30T04:18:26;72.65;;;37.35;;
57191;SDS011;43052;52.588;13.396;2022-11-30T04:20:53;79.97;;;39.78;;
57191;SDS011;43052;52.588;13.396;2022-11-30T04:23:20;75.25;;;36.72;;
57191;SDS011;43052;52.588;13.396;2022-11-30T04:25:46;74.63;;;37.03;;
57191;SDS011;43052;52.588;13.396;2022-11-30T04:28:12;76.90;;;42.10;;
57191;SDS011;43052;52.588;13.396;2022-11-30T04:30:38;74.47;;;39.10;;
57191;SDS011;43052;52.588;13.396;2022-11-30T04:33:04;79.47;;;40.03;;
57191;SDS011;43052;52.588;13.396;2022-11-30T04:35:30;71.40;;;38.30;;
57191;SDS011;43052;52.588;13.396;2022-11-30T04:37:56;70.45;;;39.15;;
57191;SDS011;43052;52.588;13.396;2022-11-30T04:40:21;66.25;;;33.95;;
57191;SDS011;43052;52.588;13.396;2022-11-30T04:42:47;75.25;;;39.63;;
57191;SDS011;43052;52.588;13.396;2022-11-30T04:45:12;74.70;;;37.72;;
57191;SDS011;43052;52.588;13.396;2022-11-30T04:47:37;75.13;;;36.88;;
57191;SDS011;43052;52.588;13.396;2022-11-30T04:50:03;73.55;;;35.20;;
57191;SDS011;43052;52.588;13.396;2022-11-30T04:52:29;76.82;;;39.38;;
57191;SDS011;43052;52.588;13.396;2022-11-30T04:54:55;74.93;;;39.40;;
57191;SDS011;43052;52.588;13.396;2022-11-30T04:57:21;79.22;;;38.47;;
57191;SDS011;43052;52.588;13.396;2022-11-30T04:59:46;76.75;;;37.88;;
57191;SDS011;43052;52.588;13.396;2022-11-30T05:02:12;79.82;;;39.63;;
57191;SDS011;43052;52.588;13.396;2022-11-30T05:04:37;77.72;;;40.20;;
57191;SDS011;43052;52.588;13.396;2022-11-30T05:07:02;75.18;;;39.75;;
57191;SDS011;43052;52.588;13.396;2022-11-30T05:09:27;72.00;;;38.83;;
57191;SDS011;43052;52.588;13.396;2022-11-30T05:11:53;79.05;;;41.45;;
57191;SDS011;43052;52.588;13.396;2022-11-30T05:14:18;67.50;;;35.28;;
57191;SDS011;43052;52.588;13.396;2022-11-30T05:16:45;75.93;;;40.75;;
57191;SDS011;43052;52.588;13.396;2022-11-30T05:19:11;77.45;;;40.33;;
57191;SDS011;43052;52.588;13.396;2022-11-30T05:21:38;71.63;;;37.03;;
57191;SDS011;43052;52.588;13.396;2022-11-30T05:24:03;76.80;;;38.08;;
57191;SDS011;43052;52.588;13.396;2022-11-30T05:26:29;74.50;;;38.35;;
57191;SDS011;43052;52.588;13.396;2022-11-30T05:28:54;78.15;;;38.45;;
57191;SDS011;43052;52.588;13.396;2022-11-30T05:31:19;75.25;;;36.70;;
57191;SDS011;43052;52.588;13.396;2022-11-30T05:33:48;71.25;;;36.33;;
57191;SDS011;43052;52.588;13.396;2022-11-30T05:36:14;75.97;;;39.25;;
57191;SDS011;43052;52.588;13.396;2022-11-30T05:38:40;72.32;;;36.47;;
57191;SDS011;43052;52.588;13.396;2022-11-30T05:41:05;71.15;;;34.22;;
57191;SDS011;43052;52.588;13.396;2022-11-30T05:43:30;74.60;;;39.22;;
57191;SDS011;43052;52.588;13.396;2022-11-30T05:45:59;70.78;;;36.05;;
57191;SDS011;43052;52.588;13.396;2022-11-30T05:48:26;78.45;;;42.75;;
57191;SDS011;43052;52.588;13.396;2022-11-30T05:50:51;65.57;;;33.75;;
57191;SDS011;43052;52.588;13.396;2022-11-30T05:53:16;77.45;;;38.85;;
57191;SDS011;43052;52.588;13.396;2022-11-30T05:55:41;77.70;;;38.88;;
57191;SDS011;43052;52.588;13.396;2022-11-30T05:58:06;73.25;;;37.63;;
57191;SDS011;43052;52.588;13.396;2022-11-30T06:00:32;81.68;;;42.55;;
57191;SDS011;43052;52.588;13.396;2022-11-30T06:02:57;72.53;;;39.28;;
57191;SDS011;43052;52.588;13.396;2022-11-30T06:05:23;73.30;;;39.33;;
57191;SDS011;43052;52.588;13.396;2022-11-30T06:07:49;76.75;;;39.33;;
57191;SDS011;43052;52.588;13.396;2022-11-30T06:10:14;73.93;;;38.67;;
57191;SDS011;43052;52.588;13.396;2022-11-30T06:12:40;73.63;;;39.60;;
57191;SDS011;43052;52.588;13.396;2022-11-30T06:15:05;65.72;;;35.03;;
57191;SDS011;43052;52.588;13.396;2022-11-30T06:17:31;70.30;;;36.00;;
57191;SDS011;43052;52.588;13.396;2022-11-30T06:19:57;80.97;;;40.22;;
57191;SDS011;43052;52.588;13.396;2022-11-30T06:22:22;75.45;;;36.97;;
57191;SDS011;43052;52.588;13.396;2022-11-30T06:24:47;78.90;;;40.83;;
57191;SDS011;43052;52.588;13.396;2022-11-30T06:27:13;66.15;;;35.47;;
57191;SDS011;43052;52.588;13.396;2022-11-30T06:29:38;78.00;;;38.50;;
57191;SDS011;43052;52.588;13.396;2022-11-30T06:32:05;81.78;;;40.28;;
57191;SDS011;43052;52.588;13.396;2022-11-30T06:34:31;76.75;;;39.08;;
57191;SDS011;43052;52.588;13.396;2022-11-30T06:36:56;75.80;;;40.53;;
57191;SDS011;43052;52.588;13.396;2022-11-30T06:39:22;67.35;;;35.90;;
57191;SDS011;43052;52.588;13.396;2022-11-30T06:41:47;68.97;;;37.85;;
57191;SDS011;43052;52.588;13.396;2022-11-30T06:44:12;78.45;;;40.20;;
57191;SDS011;43052;52.588;13.396;2022-11-30T06:46:37;75.90;;;39.13;;
57191;SDS011;43052;52.588;13.396;2022-11-30T06:49:03;76.72;;;38.55;;
57191;SDS011;43052;52.588;13.396;2022-11-30T06:51:28;72.03;;;37.10;;
57191;SDS011;43052;52.588;13.396;2022-11-30T06:53:53;75.80;;;38.88;;
57191;SDS011;43052;52.588;13.396;2022-11-30T06:56:18;73.32;;;36.78;;
57191;SDS011;43052;52.588;13.396;2022-11-30T06:58:44;72.78;;;38.20;;
57191;SDS011;43052;52.588;13.396;2022-11-30T07:01:10;79.30;;;41.33;;
57191;SDS011;43052;52.588;13.396;2022-11-30T07:03:37;74.72;;;38.67;;
57191;SDS011;43052;52.588;13.396;2022-11-30T07:06:10;72.10;;;38.80;;
57191;SDS011;43052;52.588;13.396;2022-11-30T07:08:37;71.38;;;37.97;;
57191;SDS011;43052;52.588;13.396;2022-11-30T07:11:03;60.78;;;31.10;;
57191;SDS011;43052;52.588;13.396;2022-11-30T07:13:29;73.40;;;37.78;;
57191;SDS011;43052;52.588;13.396;2022-11-30T07:15:54;64.82;;;35.17;;
57191;SDS011;43052;52.588;13.396;2022-11-30T07:18:20;68.97;;;34.33;;
57191;SDS011;43052;52.588;13.396;2022-11-30T07:20:45;77.57;;;37.53;;
57191;SDS011;43052;52.588;13.396;2022-11-30T07:23:10;72.60;;;38.10;;
57191;SDS011;43052;52.588;13.396;2022-11-30T07:25:57;75.22;;;39.10;;
57191;SDS011;43052;52.588;13.396;2022-11-30T07:28:39;74.55;;;38.38;;
57191;SDS011;43052;52.588;13.396;2022-11-30T07:31:13;71.35;;;35.78;;
57191;SDS011;43052;52.588;13.396;2022-11-30T07:33:40;73.47;;;38.37;;
57191;SDS011;43052;52.588;13.396;2022-11-30T07:36:05;75.55;;;37.80;;
57191;SDS011;43052;52.588;13.396;2022-11-30T07:38:31;72.70;;;39.05;;
57191;SDS011;43052;52.588;13.396;2022-11-30T07:40:56;74.53;;;37.60;;
57191;SDS011;43052;52.588;13.396;2022-11-30T07:43:22;75.75;;;38.45;;
57191;SDS011;43052;52.588;13.396;2022-11-30T07:45:50;74.97;;;40.03;;
57191;SDS011;43052;52.588;13.396;2022-11-30T07:48:17;72.97;;;37.88;;
57191;SDS011;43052;52.588;13.396;2022-11-30T07:50:42;72.07;;;36.38;;
57191;SDS011;43052;52.588;13.396;2022-11-30T07:53:07;72.22;;;38.80;;
57191;SDS011;43052;52.588;13.396;2022-11-30T07:55:32;75.28;;;36.17;;
57191;SDS011;43052;52.588;13.396;2022-11-30T07:57:58;76.15;;;39.03;;
57191;SDS011;43052;52.588;13.396;2022-11-30T08:00:23;67.57;;;33.38;;
57191;SDS011;43052;52.588;13.396;2022-11-30T08:02:49;70.05;;;37.35;;
57191;SDS011;43052;52.588;13.396;2022-11-30T08:05:14;78.75;;;40.63;;
57191;SDS011;43052;52.588;13.396;2022-11-30T08:07:40;71.45;;;37.58;;
57191;SDS011;43052;52.588;13.396;2022-11-30T08:10:05;72.75;;;37.83;;
57191;SDS011;43052;52.588;13.396;2022-11-30T08:12:31;71.05;;;38.15;;
57191;SDS011;43052;52.588;13.396;2022-11-30T08:14:56;71.70;;;37.67;;
57191;SDS011;43052;52.588;13.396;2022-11-30T08:17:21;74.53;;;40.10;;
57191;SDS011;43052;52.588;13.396;2022-11-30T08:19:47;66.53;;;36.10;;
57191;SDS011;43052;52.588;13.396;2022-11-30T08:22:12;72.40;;;36.55;;
57191;SDS011;43052;52.588;13.396;2022-11-30T08:24:37;62.95;;;35.80;;
57191;SDS011;43052;52.588;13.396;2022-11-30T08:27:02;72.07;;;38.83;;
57191;SDS011;43052;52.588;13.396;2022-11-30T08:29:28;63.78;;;33.47;;
57191;SDS011;43052;52.588;13.396;2022-11-30T08:31:53;71.95;;;37.97;;
57191;SDS011;43052;52.588;13.396;2022-11-30T08:34:19;70.53;;;37.97;;
57191;SDS011;43052;52.588;13.396;2022-11-30T08:36:44;65.28;;;35.80;;
57191;SDS011;43052;52.588;13.396;2022-11-30T08:39:10;64.53;;;35.08;;
57191;SDS011;43052;52.588;13.396;2022-11-30T08:41:36;66.97;;;34.05;;
57191;SDS011;43052;52.588;13.396;2022-11-30T08:44:03;66.97;;;35.95;;
57191;SDS011;43052;52.588;13.396;2022-11-30T08:46:28;66.72;;;35.08;;
57191;SDS011;43052;52.588;13.396;2022-11-30T08:48:54;68.03;;;35.80;;
57191;SDS011;43052;52.588;13.396;2022-11-30T08:51:19;67.20;;;38.30;;
57191;SDS011;43052;52.588;13.396;2022-11-30T08:53:45;66.18;;;34.55;;
57191;SDS011;43052;52.588;13.396;2022-11-30T08:56:19;65.72;;;36.60;;
57191;SDS011;43052;52.588;13.396;2022-11-30T08:58:46;63.33;;;34.55;;
57191;SDS011;43052;52.588;13.396;2022-11-30T09:03:38;65.00;;;36.17;;
57191;SDS011;43052;52.588;13.396;2022-11-30T09:06:05;64.85;;;35.72;;
57191;SDS011;43052;52.588;13.396;2022-11-30T09:08:32;65.63;;;35.47;;
57191;SDS011;43052;52.588;13.396;2022-11-30T09:10:58;56.33;;;32.33;;
57191;SDS011;43052;52.588;13.396;2022-11-30T09:13:31;70.47;;;36.47;;
57191;SDS011;43052;52.588;13.396;2022-11-30T09:15:57;63.92;;;35.72;;
57191;SDS011;43052;52.588;13.396;2022-11-30T09:18:22;61.67;;;30.88;;
57191;SDS011;43052;52.588;13.396;2022-11-30T09:20:47;65.60;;;35.70;;
57191;SDS011;43052;52.588;13.396;2022-11-30T09:23:13;67.32;;;36.88;;
57191;SDS011;43052;52.588;13.396;2022-11-30T09:25:38;64.22;;;35.08;;
57191;SDS011;43052;52.588;13.396;2022-11-30T09:28:03;61.22;;;33.50;;
57191;SDS011;43052;52.588;13.396;2022-11-30T09:30:28;62.83;;;34.28;;
57191;SDS011;43052;52.588;13.396;2022-11-30T09:32:54;61.05;;;35.40;;
57191;SDS011;43052;52.588;13.396;2022-11-30T09:35:19;66.15;;;35.63;;
57191;SDS011;43052;52.588;13.396;2022-11-30T09:37:44;61.33;;;32.90;;
57191;SDS011;43052;52.588;13.396;2022-11-30T09:40:10;62.50;;;32.28;;
57191;SDS011;43052;52.588;13.396;2022-11-30T09:42:39;61.30;;;34.33;;
57191;SDS011;43052;52.588;13.396;2022-11-30T09:45:09;66.82;;;36.65;;
57191;SDS011;43052;52.588;13.396;2022-11-30T09:47:54;66.40;;;36.03;;
57191;SDS011;43052;52.588;13.396;2022-11-30T09:50:29;63.10;;;35.15;;
57191;SDS011;43052;52.588;13.396;2022-11-30T09:52:59;60.92;;;31.58;;
57191;SDS011;43052;52.588;13.396;2022-11-30T09:55:29;64.07;;;32.90;;
57191;SDS011;43052;52.588;13.396;2022-11-30T09:58:00;59.35;;;32.45;;
57191;SDS011;43052;52.588;13.396;2022-11-30T10:00:27;68.60;;;34.83;;
57191;SDS011;43052;52.588;13.396;2022-11-30T10:05:46;65.00;;;35.08;;
57191;SDS011;43052;52.588;13.396;2022-11-30T10:13:51;62.22;;;33.63;;
57191;SDS011;43052;52.588;13.396;2022-11-30T10:16:36;63.75;;;36.35;;
57191;SDS011;43052;52.588;13.396;2022-11-30T10:21:50;60.08;;;32.10;;
57191;SDS011;43052;52.588;13.396;2022-11-30T10:24:56;65.45;;;34.40;;
57191;SDS011;43052;52.588;13.396;2022-11-30T10:27:43;66.90;;;34.85;;
57191;SDS011;43052;52.588;13.396;2022-11-30T10:30:17;59.70;;;34.25;;
57191;SDS011;43052;52.588;13.396;2022-11-30T10:32:43;67.30;;;35.40;;
57191;SDS011;43052;52.588;13.396;2022-11-30T10:37:59;64.85;;;36.45;;
57191;SDS011;43052;52.588;13.396;2022-11-30T10:40:39;61.25;;;33.50;;
57191;SDS011;43052;52.588;13.396;2022-11-30T10:43:19;60.85;;;32.83;;
57191;SDS011;43052;52.588;13.396;2022-11-30T10:45:53;63.58;;;35.38;;
57191;SDS011;43052;52.588;13.396;2022-11-30T10:48:20;63.25;;;34.22;;
57191;SDS011;43052;52.588;13.396;2022-11-30T10:50:52;63.20;;;35.55;;
57191;SDS011;43052;52.588;13.396;2022-11-30T10:53:18;63.50;;;35.53;;
57191;SDS011;43052;52.588;13.396;2022-11-30T10:55:45;63.90;;;36.20;;
57191;SDS011;43052;52.588;13.396;2022-11-30T10:58:32;66.80;;;35.40;;
57191;SDS011;43052;52.588;13.396;2022-11-30T11:01:06;63.00;;;34.72;;
57191;SDS011;43052;52.588;13.396;2022-11-30T11:03:34;63.60;;;36.45;;
57191;SDS011;43052;52.588;13.396;2022-11-30T11:06:19;61.55;;;34.22;;
57191;SDS011;43052;52.588;13.396;2022-11-30T11:08:47;62.55;;;33.90;;
57191;SDS011;43052;52.588;13.396;2022-11-30T11:11:28;64.50;;;36.10;;
57191;SDS011;43052;52.588;13.396;2022-11-30T11:14:14;62.63;;;36.13;;
57191;SDS011;43052;52.588;13.396;2022-11-30T11:16:49;59.33;;;32.95;;
57191;SDS011;43052;52.588;13.396;2022-11-30T11:19:38;62.92;;;35.70;;
57191;SDS011;43052;52.588;13.396;2022-11-30T11:24:36;57.83;;;34.17;;
57191;SDS011;43052;52.588;13.396;2022-11-30T11:27:02;59.63;;;33.70;;
57191;SDS011;43052;52.588;13.396;2022-11-30T11:29:29;65.47;;;35.08;;
57191;SDS011;43052;52.588;13.396;2022-11-30T11:32:07;64.38;;;35.17;;
57191;SDS011;43052;52.588;13.396;2022-11-30T11:34:45;67.68;;;34.08;;
57191;SDS011;43052;52.588;13.396;2022-11-30T11:37:18;64.80;;;35.35;;
57191;SDS011;43052;52.588;13.396;2022-11-30T11:40:15;66.63;;;36.03;;
57191;SDS011;43052;52.588;13.396;2022-11-30T11:42:44;69.15;;;35.75;;
57191;SDS011;43052;52.588;13.396;2022-11-30T11:45:22;62.50;;;36.22;;
57191;SDS011;43052;52.588;13.396;2022-11-30T11:48:02;60.65;;;33.35;;
57191;SDS011;43052;52.588;13.396;2022-11-30T11:50:32;65.28;;;35.42;;
57191;SDS011;43052;52.588;13.396;2022-11-30T11:55:40;62.05;;;33.92;;
57191;SDS011;43052;52.588;13.396;2022-11-30T11:58:07;63.05;;;35.03;;
57191;SDS011;43052;52.588;13.396;2022-11-30T12:00:40;63.13;;;37.53;;
57191;SDS011;43052;52.588;13.396;2022-11-30T12:03:21;63.22;;;34.72;;
57191;SDS011;43052;52.588;13.396;2022-11-30T12:05:56;68.38;;;37.30;;
57191;SDS011;43052;52.588;13.396;2022-11-30T12:11:33;67.93;;;36.47;;
57191;SDS011;43052;52.588;13.396;2022-11-30T12:14:08;62.15;;;34.33;;
57191;SDS011;43052;52.588;13.396;2022-11-30T12:19:54;64.80;;;35.30;;
57191;SDS011;43052;52.588;13.396;2022-11-30T12:25:43;68.40;;;40.22;;
57191;SDS011;43052;52.588;13.396;2022-11-30T12:28:30;61.15;;;30.38;;
57191;SDS011;43052;52.588;13.396;2022-11-30T12:31:15;71.43;;;37.58;;
57191;SDS011;43052;52.588;13.396;2022-11-30T12:33:46;55.97;;;28.65;;
57191;SDS011;43052;52.588;13.396;2022-11-30T12:41:58;69.00;;;38.70;;
57191;SDS011;43052;52.588;13.396;2022-11-30T12:47:20;66.93;;;37.33;;
57191;SDS011;43052;52.588;13.396;2022-11-30T12:53:00;72.75;;;36.03;;
57191;SDS011;43052;52.588;13.396;2022-11-30T12:55:46;73.70;;;42.60;;
57191;SDS011;43052;52.588;13.396;2022-11-30T12:58:35;69.78;;;37.75;;
57191;SDS011;43052;52.588;13.396;2022-11-30T13:06:58;75.57;;;37.38;;
57191;SDS011;43052;52.588;13.396;2022-11-30T13:10:04;78.40;;;40.35;;
57191;SDS011;43052;52.588;13.396;2022-11-30T13:12:26;74.30;;;36.88;;
57191;SDS011;43052;52.588;13.396;2022-11-30T13:14:59;76.93;;;40.70;;
57191;SDS011;43052;52.588;13.396;2022-11-30T13:17:27;74.97;;;38.58;;
57191;SDS011;43052;52.588;13.396;2022-11-30T13:20:02;78.30;;;40.28;;
57191;SDS011;43052;52.588;13.396;2022-11-30T13:31:06;80.95;;;41.47;;
57191;SDS011;43052;52.588;13.396;2022-11-30T13:33:47;78.03;;;42.30;;
57191;SDS011;43052;52.588;13.396;2022-11-30T13:36:26;82.68;;;39.58;;
57191;SDS011;43052;52.588;13.396;2022-11-30T13:41:37;68.55;;;33.35;;
57191;SDS011;43052;52.588;13.396;2022-11-30T13:44:03;82.85;;;38.67;;
57191;SDS011;43052;52.588;13.396;2022-11-30T13:46:29;87.75;;;42.95;;
57191;SDS011;43052;52.588;13.396;2022-11-30T13:49:17;82.55;;;43.20;;
57191;SDS011;43052;52.588;13.396;2022-11-30T13:51:46;91.10;;;45.28;;
57191;SDS011;43052;52.588;13.396;2022-11-30T13:59:53;84.45;;;42.13;;
57191;SDS011;43052;52.588;13.396;2022-11-30T14:13:04;79.30;;;37.35;;
57191;SDS011;43052;52.588;13.396;2022-11-30T14:20:34;79.68;;;35.85;;
57191;SDS011;43052;52.588;13.396;2022-11-30T14:23:07;74.88;;;32.53;;
57191;SDS011;43052;52.588;13.396;2022-11-30T14:25:49;91.63;;;40.20;;
57191;SDS011;43052;52.588;13.396;2022-11-30T14:28:20;96.30;;;41.97;;
57191;SDS011;43052;52.588;13.396;2022-11-30T14:30:49;97.82;;;40.88;;
57191;SDS011;43052;52.588;13.396;2022-11-30T14:33:26;103.07;;;43.47;;
57191;SDS011;43052;52.588;13.396;2022-11-30T14:36:02;95.93;;;44.30;;
57191;SDS011;43052;52.588;13.396;2022-11-30T14:38:29;96.88;;;44.47;;
57191;SDS011;43052;52.588;13.396;2022-11-30T14:40:55;103.45;;;44.17;;
57191;SDS011;43052;52.588;13.396;2022-11-30T14:43:33;80.63;;;37.30;;
57191;SDS011;43052;52.588;13.396;2022-11-30T14:46:02;92.32;;;40.15;;
57191;SDS011;43052;52.588;13.396;2022-11-30T14:48:29;85.68;;;38.45;;
57191;SDS011;43052;52.588;13.396;2022-11-30T14:50:56;80.93;;;37.88;;
57191;SDS011;43052;52.588;13.396;2022-11-30T14:59:39;91.80;;;37.15;;
57191;SDS011;43052;52.588;13.396;2022-11-30T15:02:15;92.15;;;37.40;;
57191;SDS011;43052;52.588;13.396;2022-11-30T15:04:45;94.38;;;38.38;;
57191;SDS011;43052;52.588;13.396;2022-11-30T15:07:12;79.68;;;37.17;;
57191;SDS011;43052;52.588;13.396;2022-11-30T15:09:39;91.82;;;39.03;;
57191;SDS011;43052;52.588;13.396;2022-11-30T15:12:07;95.03;;;40.45;;
57191;SDS011;43052;52.588;13.396;2022-11-30T15:14:32;100.32;;;40.22;;
57191;SDS011;43052;52.588;13.396;2022-11-30T15:16:58;97.13;;;39.58;;
57191;SDS011;43052;52.588;13.396;2022-11-30T15:19:24;93.68;;;38.22;;
57191;SDS011;43052;52.588;13.396;2022-11-30T15:21:52;107.18;;;44.05;;
57191;SDS011;43052;52.588;13.396;2022-11-30T15:24:18;102.90;;;44.97;;
57191;SDS011;43052;52.588;13.396;2022-11-30T15:26:55;103.40;;;40.95;;
57191;SDS011;43052;52.588;13.396;2022-11-30T15:32:04;89.10;;;38.00;;
57191;SDS011;43052;52.588;13.396;2022-11-30T15:34:35;96.32;;;40.75;;
57191;SDS011;43052;52.588;13.396;2022-11-30T15:37:15;96.07;;;35.65;;
57191;SDS011;43052;52.588;13.396;2022-11-30T15:39:48;111.10;;;45.40;;
57191;SDS011;43052;52.588;13.396;2022-11-30T15:42:18;101.20;;;37.53;;
57191;SDS011;43052;52.588;13.396;2022-11-30T15:44:51;96.50;;;37.42;;
57191;SDS011;43052;52.588;13.396;2022-11-30T15:47:24;96.65;;;38.88;;
57191;SDS011;43052;52.588;13.396;2022-11-30T15:49:55;92.50;;;37.72;;
57191;SDS011;43052;52.588;13.396;2022-11-30T15:52:25;90.20;;;34.22;;
57191;SDS011;43052;52.588;13.396;2022-11-30T15:54:58;88.68;;;35.33;;